Latest Weather Observations for Learmonth

IDW60801

Issued at 9:02 am WST Friday 12 February 2016 (issued every 30 minutes, with the page automatically refreshed every 10 minutes)

About weather observations | Map of weather stations | Latest weather observations for WA | Other Formats
Station Details ID: 005007 Name: LEARMONTH AIRPORT Lat: -22.24 Lon: 114.10 Height: 5.0 m
Data from the previous 72 hours. | See also: Recent months at Learmonth
Date/Time
WST
Temp
°C
App
Temp
°C
Dew
Point
Rel
Hum
%
Delta-T
°C
Wind Press
QNH
hPa
Press
MSL
hPa
Rain
since 9 am
mm
Dir
 
Spd
km/h
Gust
km/h
Spd
kts
Gust
kts
12/09:00am 31.2 31.7 19.3 49 7.8 S 15 19 8 10 1009.3 1009.2 0.0
12/08:30am 30.4 30.6 19.4 51 7.2 SSW 17 24 9 13 1009.1 - 0.0
12/08:00am 29.4 29.3 20.0 57 6.2 SSW 20 24 11 13 1009.1 - 0.0
12/07:30am 27.7 29.2 21.2 67 4.3 SW 15 19 8 10 1009.3 - 0.0
12/07:00am 26.0 29.4 21.0 74 3.3 SW 4 11 2 6 1009.2 - 0.0
12/06:30am 24.6 27.3 20.3 77 2.8 WNW 6 13 3 7 1008.9 - 0.0
12/06:00am 24.1 26.6 19.9 77 2.7 NW 6 13 3 7 1008.4 1008.3 0.0
12/05:30am 24.6 27.1 21.1 81 2.3 SW 9 13 5 7 1008.2 - 0.0
12/05:00am 25.5 28.4 21.7 79 2.5 W 9 15 5 8 1007.9 - 0.0
12/04:30am 25.5 27.1 22.1 81 2.3 SSW 17 22 9 12 1007.5 - 0.0
12/04:00am 25.9 27.5 21.5 76 2.9 SW 15 20 8 11 1007.2 - 0.0
12/03:30am 25.8 26.6 21.4 76 2.9 SSW 19 22 10 12 1007.1 - 0.0
12/03:00am 26.6 27.7 21.2 72 3.6 SW 17 20 9 11 1007.4 1007.3 0.0
12/02:30am 26.0 26.3 21.5 76 3.0 SW 22 26 12 14 1007.5 - 0.0
12/02:00am 24.3 26.2 21.3 83 2.0 SSW 13 17 7 9 1007.5 - 0.0
12/01:30am 23.9 25.5 20.7 82 2.1 S 13 13 7 7 1007.6 - 0.0
12/01:00am 24.7 26.6 19.7 73 3.2 SSW 9 11 5 6 1008.0 - 0.0
12/12:30am 24.8 26.0 19.9 74 3.2 SSW 13 15 7 8 1008.2 - 0.0
12/12:00am 25.2 26.8 20.0 73 3.4 SSW 11 13 6 7 1008.6 1008.5 0.0
 
Date/Time
WST
Temp
°C
App
Temp
°C
Dew
Point
Rel
Hum
%
Delta-T
°C
Wind Press
QNH
hPa
Press
MSL
hPa
Rain
since 9 am
mm
Dir
 
Spd
km/h
Gust
km/h
Spd
kts
Gust
kts
11/11:30pm 27.1 28.4 20.2 66 4.5 SW 13 17 7 9 1008.7 - 0.0
11/11:00pm 27.6 28.3 20.5 65 4.7 WSW 17 20 9 11 1008.8 - 0.0
11/10:30pm 27.7 28.6 20.9 66 4.5 SW 17 22 9 12 1009.1 - 0.0
11/10:00pm 28.0 28.5 20.9 65 4.7 SW 19 24 10 13 1009.2 - 0.0
11/09:30pm 28.3 28.5 22.7 71 3.8 SW 26 33 14 18 1009.0 - 0.0
11/09:00pm 28.8 28.6 22.0 66 4.6 SW 26 32 14 17 1008.7 1008.6 0.0
11/08:30pm 29.7 29.5 19.8 55 6.5 SW 20 24 11 13 1008.2 - 0.0
11/08:00pm 30.4 30.0 19.0 50 7.4 SW 19 24 10 13 1008.2 - 0.0
11/07:30pm 31.7 30.8 17.8 43 8.9 SW 19 24 10 13 1007.7 - 0.0
11/07:00pm 33.4 31.0 16.3 36 10.8 W 24 30 13 16 1007.1 - 0.0
11/06:30pm 36.5 34.5 15.6 29 13.2 W 20 26 11 14 1006.6 - 0.0
11/06:00pm 37.5 35.9 16.5 29 13.5 W 20 26 11 14 1006.4 1006.3 0.0
11/05:30pm 40.1 37.1 13.6 21 16.5 W 22 28 12 15 1006.0 - 0.0
11/05:00pm 42.2 38.6 10.7 15 18.9 W 20 28 11 15 1005.5 - 0.0
11/04:30pm 43.1 39.3 9.2 13 20.0 WNW 19 26 10 14 1005.4 - 0.0
11/04:00pm 43.6 38.9 3.4 8 21.9 N 17 22 9 12 1005.6 - 0.0
11/03:30pm 42.4 41.3 13.0 17 18.3 N 11 15 6 8 1005.9 - 0.0
11/03:00pm 40.3 40.3 15.2 23 16.0 NNE 9 15 5 8 1006.3 1006.2 0.0
11/02:30pm 37.9 37.3 15.7 27 14.1 NNE 13 17 7 9 1006.7 - 0.0
11/02:00pm 36.7 36.1 16.6 30 12.9 NE 15 20 8 11 1006.9 - 0.0
11/01:30pm 37.1 37.2 17.4 31 12.8 NE 13 20 7 11 1007.1 - 0.0
11/01:00pm 36.2 35.5 16.5 31 12.6 NE 15 20 8 11 1007.3 - 0.0
11/12:30pm 36.0 35.4 17.5 33 12.0 ENE 17 20 9 11 1007.6 - 0.0
11/12:00pm 35.2 34.1 19.4 39 10.5 E 24 28 13 15 1007.7 1007.6 0.0
11/11:30am 35.2 34.0 18.4 37 11.0 E 22 28 12 15 1007.9 - 0.0
11/11:00am 35.1 35.7 20.3 42 9.9 E 17 24 9 13 1008.3 - 0.0
11/10:30am 36.7 37.7 17.8 32 12.3 SSE 9 17 5 9 1008.7 - 0.0
11/10:00am 35.6 36.3 17.9 35 11.5 S 11 19 6 10 1009.0 - 0.0
11/09:30am 33.9 34.2 18.0 39 10.3 SSW 13 20 7 11 1009.2 - 0.0
11/09:00am 32.7 32.2 18.6 43 9.2 S 19 24 10 13 1009.2 1009.1 0.0
11/08:30am 30.9 31.3 20.9 55 6.7 SW 20 28 11 15 1009.3 - 0.0
11/08:00am 29.4 30.4 21.8 63 5.1 SW 19 24 10 13 1009.3 - 0.0
11/07:30am 27.7 29.1 22.5 73 3.5 SW 19 26 10 14 1009.5 - 0.0
11/07:00am 25.2 26.5 21.7 81 2.3 SSW 17 22 9 12 1009.1 - 0.0
11/06:30am 24.0 25.7 21.0 83 2.0 SSE 13 17 7 9 1009.0 - 0.0
11/06:00am 24.3 25.4 20.5 79 2.5 SSW 15 17 8 9 1008.1 1008.0 0.0
11/05:30am 24.5 26.1 19.9 75 3.0 S 11 15 6 8 1008.0 - 0.0
11/05:00am 24.7 26.5 19.6 73 3.3 SSW 9 15 5 8 1007.8 - 0.0
11/04:30am 24.7 24.2 17.7 65 4.4 SW 17 19 9 10 1007.7 - 0.0
11/04:00am 24.5 24.1 16.2 60 5.1 SSW 13 13 7 7 1007.5 - 0.0
11/03:30am 27.4 27.8 14.8 46 7.6 WSW 6 7 3 4 1007.3 - 0.0
11/03:00am 27.9 26.9 14.5 44 8.1 WSW 13 17 7 9 1007.1 1007.0 0.0
11/02:30am 28.4 27.6 15.1 44 8.1 NW 13 15 7 8 1007.1 - 0.0
11/02:00am 26.0 27.7 19.3 66 4.3 WSW 9 11 5 6 1007.1 - 0.0
11/01:30am 26.6 26.6 19.8 66 4.4 SSW 19 20 10 11 1007.1 - 0.0
11/01:00am 25.6 25.8 18.5 65 4.5 SSW 15 19 8 10 1007.2 - 0.0
11/12:30am 25.8 25.6 17.7 61 5.1 SSW 15 19 8 10 1007.5 - 0.0
11/12:00am 25.6 25.3 18.2 63 4.7 SSW 17 19 9 10 1007.8 1007.7 0.0
 
Date/Time
WST
Temp
°C
App
Temp
°C
Dew
Point
Rel
Hum
%
Delta-T
°C
Wind Press
QNH
hPa
Press
MSL
hPa
Rain
since 9 am
mm
Dir
 
Spd
km/h
Gust
km/h
Spd
kts
Gust
kts
10/11:30pm 25.8 25.9 18.4 63 4.7 S 15 19 8 10 1008.3 - 0.0
10/11:00pm 26.5 26.7 17.6 58 5.6 SSW 13 15 7 8 1008.5 - 0.0
10/10:30pm 28.1 28.4 18.0 54 6.4 SSW 13 17 7 9 1008.6 - 0.0
10/10:00pm 29.0 28.5 19.1 55 6.4 SW 20 24 11 13 1008.8 - 0.0
10/09:30pm 29.0 28.8 19.7 57 6.1 SSW 20 28 11 15 1008.8 - 0.0
10/09:00pm 29.9 27.2 16.7 45 8.3 SSW 26 32 14 17 1008.5 1008.4 0.0
10/08:30pm 30.4 29.4 16.7 43 8.6 SW 17 20 9 11 1008.4 - 0.0
10/08:00pm 31.3 29.5 16.1 40 9.5 SSW 20 22 11 12 1008.3 - 0.0
10/07:30pm 33.0 31.9 15.3 34 11.0 WSW 15 19 8 10 1008.1 - 0.0
10/07:00pm 34.9 32.3 13.2 27 13.2 WSW 19 24 10 13 1007.8 - 0.0
10/06:30pm 37.2 33.4 11.1 20 15.5 W 22 30 12 16 1007.3 - 0.0
10/06:00pm 38.8 33.1 8.4 16 17.5 W 28 33 15 18 1006.9 1006.8 0.0
10/05:30pm 40.5 34.7 6.4 12 19.2 WNW 26 35 14 19 1006.5 - 0.0
10/05:00pm 41.3 34.6 7.2 13 19.4 WNW 32 39 17 21 1006.2 - 0.0
10/04:30pm 43.1 37.1 3.3 9 21.6 WNW 24 35 13 19 1006.1 - 0.0
10/04:00pm 42.7 37.7 6.5 11 20.6 N 22 26 12 14 1006.4 - 0.0
10/03:30pm 42.8 38.2 5.7 10 20.8 NNE 19 24 10 13 1006.5 - 0.0
10/03:00pm 42.3 39.4 10.9 15 19.0 N 17 20 9 11 1006.7 1006.6 0.0
10/02:30pm 40.9 39.5 15.6 22 16.2 N 17 20 9 11 1007.0 - 0.0
10/02:00pm 39.7 38.7 16.7 26 14.9 NNE 17 22 9 12 1007.3 - 0.0
10/01:30pm 38.7 36.9 15.6 25 14.7 NNE 19 22 10 12 1007.5 - 0.0
10/01:00pm 38.1 36.3 15.6 26 14.3 NE 19 24 10 13 1007.7 - 0.0
10/12:30pm 37.0 35.7 15.7 28 13.5 NE 17 20 9 11 1007.9 - 0.0
10/12:00pm 37.7 36.2 15.4 26 14.1 NE 17 22 9 12 1008.1 1008.0 0.0
10/11:30am 36.1 34.8 17.2 32 12.2 NNE 20 24 11 13 1008.4 - 0.0
10/11:00am 37.3 34.2 13.4 24 14.7 N 22 26 12 14 1008.6 - 0.0
10/10:30am 35.9 33.3 13.8 26 13.6 N 20 26 11 14 1009.1 - 0.0
10/10:00am 35.7 35.1 17.6 34 11.7 ENE 17 22 9 12 1009.4 - 0.0
10/09:30am 37.6 37.6 15.3 26 14.1 ENE 9 17 5 9 1009.4 - 0.0
10/09:00am 36.3 36.3 14.2 26 13.7 S 7 13 4 7 1009.2 1009.1 0.0
10/08:30am 34.6 34.4 14.8 30 12.3 SSW 9 15 5 8 1009.2 - 0.0
10/08:00am 33.3 32.8 16.0 35 10.9 SW 13 17 7 9 1009.1 - 0.0
10/07:30am 31.0 31.8 17.3 43 8.7 SW 9 15 5 8 1008.9 - 0.0
10/07:00am 27.6 29.2 16.9 52 6.7 SSW 4 11 2 6 1008.7 - 0.0
10/06:30am 25.2 25.5 17.0 60 5.1 SSW 11 19 6 10 1008.6 - 0.0
10/06:00am 25.3 23.9 14.6 51 6.4 SW 15 17 8 9 1008.2 1008.1 0.0
10/05:30am 26.4 25.3 14.2 47 7.3 SW 13 15 7 8 1008.0 - 0.0
10/05:00am 26.0 25.4 14.7 49 6.8 SSW 11 13 6 7 1007.8 - 0.0
10/04:30am 27.3 26.2 13.2 41 8.3 WSW 11 17 6 9 1007.6 - 0.0
10/04:00am 26.3 24.6 12.3 41 8.1 SSW 13 15 7 8 1007.8 - 0.0
10/03:30am 27.1 26.5 12.3 39 8.6 S 7 9 4 5 1007.8 - 0.0
10/03:00am 30.5 28.9 11.6 31 11.0 WNW 11 13 6 7 1007.5 1007.4 0.0
10/02:30am 28.7 27.5 11.6 34 9.9 NW 9 13 5 7 1007.5 - 0.0
10/02:00am 29.6 27.0 10.7 31 10.8 W 15 17 8 9 1007.7 - 0.0
10/01:30am 27.2 24.1 9.0 31 10.0 NNW 15 17 8 9 1008.1 - 0.0
10/01:00am 29.6 26.8 8.6 27 11.6 NW 13 17 7 9 1008.2 - 0.0
10/12:30am 30.0 26.9 9.0 27 11.7 WSW 15 22 8 12 1008.2 - 0.0
10/12:00am 30.4 28.3 11.2 30 11.1 WSW 13 15 7 8 1008.6 1008.5 0.0
 
Date/Time
WST
Temp
°C
App
Temp
°C
Dew
Point
Rel
Hum
%
Delta-T
°C
Wind Press
QNH
hPa
Press
MSL
hPa
Rain
since 9 am
mm
Dir
 
Spd
km/h
Gust
km/h
Spd
kts
Gust
kts
09/11:30pm 30.2 29.5 12.1 32 10.6 NW 7 11 4 6 1008.8 - 0.0
09/11:00pm 30.0 28.8 13.9 37 9.7 W 13 19 7 10 1009.0 - 0.0
09/10:30pm 28.9 27.4 16.8 48 7.6 SSW 20 28 11 15 1009.0 - 0.0
09/10:00pm 29.4 26.9 16.2 44 8.2 SSW 24 30 13 16 1009.0 - 0.0
09/09:30pm 29.7 26.3 11.1 31 10.7 S 20 26 11 14 1009.0 - 0.0
09/09:00pm 30.6 28.4 13.2 34 10.4 SSW 17 20 9 11 1008.5 1008.4 0.0
09/08:30pm 32.4 30.4 14.0 32 11.2 SW 17 20 9 11 1008.1 - 0.0
09/08:00pm 33.4 31.0 12.5 28 12.5 SW 17 20 9 11 1007.9 - 0.0
09/07:30pm 34.8 30.1 7.8 19 15.1 SW 22 28 12 15 1007.6 - 0.0
09/07:00pm 36.1 30.7 4.5 14 16.9 W 22 30 12 16 1007.3 - 0.0
09/06:30pm 38.6 32.1 0.2 9 19.4 W 24 30 13 16 1006.9 - 0.0
09/06:00pm 39.3 32.0 -0.1 8 20.0 W 28 33 15 18 1006.8 1006.7 0.0
09/05:30pm 40.4 34.6 4.3 11 19.6 W 24 32 13 17 1006.6 - 0.0
09/05:00pm 42.2 37.0 5.7 11 20.5 WNW 22 28 12 15 1006.3 - 0.0
09/04:30pm 43.1 37.4 0.5 7 22.2 N 20 24 11 13 1006.2 - 0.0
09/04:00pm 43.7 38.5 0.4 7 22.6 NNE 17 20 9 11 1006.4 - 0.0
09/03:30pm 44.3 39.6 0.8 7 23.0 NNE 15 20 8 11 1006.7 - 0.0
09/03:00pm 44.3 40.6 -0.2 6 23.2 NW 9 22 5 12 1007.1 1007.0 0.0
09/02:30pm 42.6 39.2 5.9 11 20.7 N 13 19 7 10 1007.6 - 0.0
09/02:00pm 38.6 36.7 15.2 25 14.8 NNE 19 22 10 12 1008.2 - 0.0
09/01:30pm 38.7 37.5 16.1 26 14.5 ENE 17 20 9 11 1008.4 - 0.0
09/01:00pm 39.2 38.3 14.8 23 15.4 ENE 13 15 7 8 1008.5 - 0.0
09/12:30pm 38.5 37.7 16.0 26 14.4 E 15 17 8 9 1008.8 - 0.0
09/12:00pm 37.6 36.5 16.4 28 13.6 E 17 20 9 11 1009.0 1008.9 0.0
09/11:30am 36.9 35.5 16.6 30 13.0 E 19 22 10 12 1009.2 - 0.0
09/11:00am 37.2 36.2 17.9 32 12.6 E 20 22 11 12 1009.5 - 0.0
09/10:30am 36.0 36.9 19.2 37 11.1 ESE 13 20 7 11 1009.9 - 0.0
09/10:00am 35.5 35.9 18.2 36 11.3 SSE 13 20 7 11 1010.2 - 0.0
09/09:30am 34.1 35.8 19.4 42 9.7 S 9 17 5 9 1010.4 - 0.0

Other Formats:

Comma delimited format used in spreadsheet applications
http://www.bom.gov.au/fwo/IDW60801/IDW60801.94302.axf

JavaScript Object Notation format (JSON) in row-major order
http://www.bom.gov.au/fwo/IDW60801/IDW60801.94302.json